Time;durP1;ratioP1;P1;durP2;ratioP2;P2;SDS_P1;SDS_P2;PMS_P1;PMS_P2;Temp;Humidity;BMP_temperature;BMP_pressure;BME280_temperature;BME280_humidity;BME280_pressure;Samples;Min_cycle;Max_cycle;Signal;HPM_P1;HPM_P2
2022/07/12 00:00:32;;;;;;;;;;;17.60;99.90;;;;;;5057328;28;20010;-69
2022/07/12 00:02:59;;;;;;;;;;;17.60;99.90;;;;;;5056481;28;20023;-68
2022/07/12 00:05:26;;;;;;;;;;;17.70;99.90;;;;;;5054155;28;19979;-67
2022/07/12 00:07:52;;;;;;;;;;;17.70;99.90;;;;;;5055044;28;19932;-68
2022/07/12 00:10:19;;;;;;;;;;;17.70;99.90;;;;;;5053593;28;19928;-68
2022/07/12 00:12:46;;;;;;;;;;;17.70;99.90;;;;;;5054937;28;20007;-68
2022/07/12 00:15:15;;;;;;;;;;;17.70;99.90;;;;;;5055537;28;19924;-67
2022/07/12 00:17:42;;;;;;;;;;;17.70;99.90;;;;;;5056297;28;20015;-67
2022/07/12 00:20:09;;;;;;;;;;;17.80;99.90;;;;;;5057413;28;19976;-68
2022/07/12 00:22:36;;;;;;;;;;;17.70;99.90;;;;;;5056054;28;19925;-67
2022/07/12 00:25:03;;;;;;;;;;;17.60;99.90;;;;;;5053760;28;19958;-67
2022/07/12 00:27:30;;;;;;;;;;;17.50;99.90;;;;;;5057709;28;19932;-68
2022/07/12 00:29:56;;;;;;;;;;;17.40;99.90;;;;;;5054444;28;19929;-67
2022/07/12 00:32:24;;;;;;;;;;;17.40;99.90;;;;;;5056701;28;19924;-68
2022/07/12 00:34:51;;;;;;;;;;;17.30;99.90;;;;;;5058231;28;19932;-67
2022/07/12 00:37:18;;;;;;;;;;;17.30;99.90;;;;;;5057999;28;19939;-67
2022/07/12 00:39:44;;;;;;;;;;;17.30;99.90;;;;;;5059475;28;19924;-67
2022/07/12 00:42:11;;;;;;;;;;;17.20;99.90;;;;;;5056549;28;19925;-67
2022/07/12 00:44:38;;;;;;;;;;;17.10;99.90;;;;;;5058493;28;20438;-68
2022/07/12 00:47:06;;;;;;;;;;;17.00;99.90;;;;;;5059056;28;20015;-67
2022/07/12 00:49:34;;;;;;;;;;;16.90;99.90;;;;;;5060200;28;19976;-68
2022/07/12 00:52:01;;;;;;;;;;;16.80;99.90;;;;;;5063721;28;20032;-67
2022/07/12 00:54:28;;;;;;;;;;;16.60;99.90;;;;;;5060011;28;20059;-68
2022/07/12 00:56:54;;;;;;;;;;;16.60;99.90;;;;;;5064488;28;19924;-68
2022/07/12 00:59:21;;;;;;;;;;;16.60;99.90;;;;;;5068301;28;19964;-68
2022/07/12 01:01:48;;;;;;;;;;;16.50;99.90;;;;;;5064571;28;19933;-68
2022/07/12 01:04:18;;;;;;;;;;;16.50;99.90;;;;;;5061641;28;20018;-68
2022/07/12 01:06:46;;;;;;;;;;;16.50;99.90;;;;;;5061084;28;20026;-68
2022/07/12 01:09:12;;;;;;;;;;;16.60;99.90;;;;;;5061812;28;19943;-68
2022/07/12 01:11:39;;;;;;;;;;;16.60;99.90;;;;;;5063317;28;20135;-67
2022/07/12 01:14:06;;;;;;;;;;;16.60;99.90;;;;;;5064519;28;19935;-67
2022/07/12 01:16:33;;;;;;;;;;;16.60;99.90;;;;;;5063706;28;19929;-68
2022/07/12 01:19:00;;;;;;;;;;;16.60;99.90;;;;;;5063051;28;20021;-67
2022/07/12 01:21:30;;;;;;;;;;;16.60;99.90;;;;;;5063590;28;20027;-68
2022/07/12 01:23:58;;;;;;;;;;;16.60;99.90;;;;;;5057485;28;20349;-67
2022/07/12 01:26:25;;;;;;;;;;;16.50;99.90;;;;;;5063812;28;19976;-67
2022/07/12 01:28:52;;;;;;;;;;;16.50;99.90;;;;;;5062822;28;19948;-67
2022/07/12 01:31:19;;;;;;;;;;;16.50;99.90;;;;;;5060919;28;19933;-68
2022/07/12 01:33:45;;;;;;;;;;;16.50;99.90;;;;;;5062660;28;20288;-68
2022/07/12 01:36:12;;;;;;;;;;;16.40;99.90;;;;;;5068506;28;19932;-68
2022/07/12 01:38:39;;;;;;;;;;;16.40;99.90;;;;;;5061860;28;19935;-69
2022/07/12 01:41:07;;;;;;;;;;;16.30;99.90;;;;;;5064608;28;20384;-68
2022/07/12 01:43:34;;;;;;;;;;;16.30;99.90;;;;;;5063676;28;19955;-67
2022/07/12 01:46:00;;;;;;;;;;;16.20;99.90;;;;;;5065487;28;20027;-67
2022/07/12 01:48:27;;;;;;;;;;;16.20;99.90;;;;;;5061544;28;19930;-68
2022/07/12 01:50:54;;;;;;;;;;;16.20;99.90;;;;;;5061309;28;20386;-68
2022/07/12 01:53:21;;;;;;;;;;;16.10;99.90;;;;;;5062214;28;19955;-68
2022/07/12 01:55:48;;;;;;;;;;;16.10;99.90;;;;;;5060344;28;20027;-69
2022/07/12 01:58:16;;;;;;;;;;;16.10;99.90;;;;;;5063725;28;19925;-68
2022/07/12 02:00:50;;;;;;;;;;;16.10;99.90;;;;;;5065460;28;19928;-68
2022/07/12 02:03:17;;;;;;;;;;;16.00;99.90;;;;;;5068069;28;20291;-68
2022/07/12 02:05:44;;;;;;;;;;;16.00;99.90;;;;;;5064019;28;20037;-68
2022/07/12 02:08:12;;;;;;;;;;;15.90;99.90;;;;;;5057809;28;19963;-68
2022/07/12 02:10:38;;;;;;;;;;;15.80;99.90;;;;;;5063634;28;20451;-68
2022/07/12 02:13:05;;;;;;;;;;;15.70;99.90;;;;;;5061251;28;20039;-68
2022/07/12 02:15:34;;;;;;;;;;;15.60;99.90;;;;;;5067447;28;19931;-68
2022/07/12 02:18:00;;;;;;;;;;;15.50;99.90;;;;;;5060838;28;20027;-68
2022/07/12 02:20:27;;;;;;;;;;;15.50;99.90;;;;;;5058515;28;19948;-68
2022/07/12 02:22:54;;;;;;;;;;;15.60;99.90;;;;;;5065321;28;19924;-68
2022/07/12 02:25:20;;;;;;;;;;;15.50;99.90;;;;;;5064008;28;19962;-67
2022/07/12 02:27:47;;;;;;;;;;;15.40;99.90;;;;;;5064139;28;19928;-68
2022/07/12 02:30:14;;;;;;;;;;;15.30;99.90;;;;;;5066434;28;20013;-68
2022/07/12 02:32:42;;;;;;;;;;;15.20;99.90;;;;;;5065482;28;19928;-68
2022/07/12 02:35:08;;;;;;;;;;;15.20;99.90;;;;;;5063868;28;19924;-68
2022/07/12 02:37:35;;;;;;;;;;;15.10;99.90;;;;;;5065582;28;19970;-68
2022/07/12 02:42:42;;;;;;;;;;;15.00;99.90;;;;;;5015724;28;19924;-68
2022/07/12 02:45:10;;;;;;;;;;;15.00;99.90;;;;;;5062490;28;19950;-68
2022/07/12 02:47:37;;;;;;;;;;;15.00;99.90;;;;;;5059114;28;19982;-69
2022/07/12 02:50:06;;;;;;;;;;;14.90;99.90;;;;;;5062725;28;20334;-68
2022/07/12 02:52:32;;;;;;;;;;;14.90;99.90;;;;;;5061593;28;20035;-68
2022/07/12 02:54:59;;;;;;;;;;;14.90;99.90;;;;;;5060871;28;19925;-68
2022/07/12 02:57:26;;;;;;;;;;;14.80;99.90;;;;;;5066000;28;19963;-68
2022/07/12 02:59:52;;;;;;;;;;;14.80;99.90;;;;;;5066878;28;19925;-68
2022/07/12 03:02:19;;;;;;;;;;;14.80;99.90;;;;;;5065138;28;20276;-68
2022/07/12 03:04:46;;;;;;;;;;;14.80;99.90;;;;;;5061459;28;19931;-69
2022/07/12 03:07:14;;;;;;;;;;;14.80;99.90;;;;;;5061472;28;20032;-68
2022/07/12 03:09:40;;;;;;;;;;;14.90;99.90;;;;;;5060627;28;19990;-68
2022/07/12 03:12:08;;;;;;;;;;;14.80;99.90;;;;;;5061414;28;19931;-69
2022/07/12 03:14:34;;;;;;;;;;;14.80;99.90;;;;;;5058718;28;19932;-68
2022/07/12 03:17:01;;;;;;;;;;;14.90;99.90;;;;;;5063311;28;20346;-69
2022/07/12 03:19:28;;;;;;;;;;;15.00;99.90;;;;;;5060342;28;20455;-68
2022/07/12 03:21:55;;;;;;;;;;;14.80;99.90;;;;;;5062412;28;20031;-68
2022/07/12 03:24:23;;;;;;;;;;;14.80;99.90;;;;;;5062025;28;19976;-68
2022/07/12 03:26:51;;;;;;;;;;;14.70;99.90;;;;;;5064380;28;19970;-69
2022/07/12 03:29:17;;;;;;;;;;;14.70;99.90;;;;;;5061267;28;20342;-70
2022/07/12 03:31:44;;;;;;;;;;;14.80;99.90;;;;;;5061791;28;19968;-68
2022/07/12 03:34:11;;;;;;;;;;;14.90;99.90;;;;;;5063798;28;20407;-69
2022/07/12 03:36:37;;;;;;;;;;;14.90;99.90;;;;;;5063944;28;19990;-68
2022/07/12 03:39:04;;;;;;;;;;;14.70;99.90;;;;;;5059012;28;20470;-68
2022/07/12 03:41:32;;;;;;;;;;;14.70;99.90;;;;;;5059222;28;20386;-67
2022/07/12 03:43:59;;;;;;;;;;;14.70;99.90;;;;;;5059163;28;20805;-68
2022/07/12 03:46:25;;;;;;;;;;;14.80;99.90;;;;;;5061922;28;19931;-68
2022/07/12 03:48:52;;;;;;;;;;;14.90;99.90;;;;;;5056289;28;20015;-69
2022/07/12 03:51:19;;;;;;;;;;;14.90;99.90;;;;;;5059139;28;20368;-68
2022/07/12 03:53:45;;;;;;;;;;;14.90;99.90;;;;;;5057830;28;19971;-68
2022/07/12 03:57:13;;;;;;;;;;;14.90;99.90;;;;;;5059645;28;20003;-68
2022/07/12 03:59:00;;;;;;;;;;;14.90;99.90;;;;;;5060337;28;19929;-68
2022/07/12 04:01:27;;;;;;;;;;;14.90;99.90;;;;;;5059622;28;19928;-68
2022/07/12 04:03:53;;;;;;;;;;;14.90;99.90;;;;;;5057693;28;19925;-68
2022/07/12 04:06:20;;;;;;;;;;;15.00;99.90;;;;;;5062468;28;20341;-68
2022/07/12 04:08:47;;;;;;;;;;;14.80;99.90;;;;;;5058456;28;20018;-69
2022/07/12 04:11:14;;;;;;;;;;;14.80;99.90;;;;;;5058372;28;19963;-68
2022/07/12 04:13:40;;;;;;;;;;;14.70;99.90;;;;;;5059360;28;19943;-69
2022/07/12 04:16:09;;;;;;;;;;;14.60;99.90;;;;;;5061021;28;19956;-68
2022/07/12 04:18:35;;;;;;;;;;;14.60;99.90;;;;;;5059966;28;20425;-68
2022/07/12 04:21:02;;;;;;;;;;;14.70;99.90;;;;;;5065215;28;20090;-68
2022/07/12 04:23:29;;;;;;;;;;;14.70;99.90;;;;;;5059522;28;20306;-68
2022/07/12 04:25:55;;;;;;;;;;;14.90;99.90;;;;;;5068524;28;20051;-68
2022/07/12 04:28:22;;;;;;;;;;;14.90;99.90;;;;;;5062061;28;20134;-68
2022/07/12 04:30:49;;;;;;;;;;;14.90;99.90;;;;;;5061956;28;19925;-69
2022/07/12 04:33:17;;;;;;;;;;;15.00;99.90;;;;;;5062670;28;19937;-68
2022/07/12 04:35:45;;;;;;;;;;;15.20;99.90;;;;;;5062617;28;20040;-68
2022/07/12 04:38:11;;;;;;;;;;;15.20;99.90;;;;;;5060996;28;20395;-68
2022/07/12 04:40:38;;;;;;;;;;;15.30;99.90;;;;;;5061617;28;20043;-68
2022/07/12 04:43:05;;;;;;;;;;;15.40;99.90;;;;;;5066042;28;19924;-67
2022/07/12 04:45:31;;;;;;;;;;;15.50;99.90;;;;;;5061604;28;20594;-68
2022/07/12 04:47:58;;;;;;;;;;;15.70;99.90;;;;;;5055938;28;20112;-72
2022/07/12 04:50:26;;;;;;;;;;;15.90;99.90;;;;;;5057756;28;20017;-74
2022/07/12 04:52:53;;;;;;;;;;;16.10;99.90;;;;;;5065637;28;19925;-73
2022/07/12 04:55:20;;;;;;;;;;;16.30;99.90;;;;;;5061789;28;20032;-73
2022/07/12 04:57:46;;;;;;;;;;;16.40;99.90;;;;;;5066551;28;20440;-73
2022/07/12 05:00:13;;;;;;;;;;;16.50;99.90;;;;;;5066284;28;20362;-74
2022/07/12 05:02:40;;;;;;;;;;;16.60;99.90;;;;;;5072400;28;20395;-74
2022/07/12 05:05:07;;;;;;;;;;;16.70;99.90;;;;;;5064955;28;20474;-74
2022/07/12 05:07:35;;;;;;;;;;;16.90;99.90;;;;;;5061856;28;19936;-74
2022/07/12 05:10:02;;;;;;;;;;;16.90;99.90;;;;;;5069589;28;20349;-73
2022/07/12 05:12:29;;;;;;;;;;;16.90;99.90;;;;;;5063623;28;19964;-74
2022/07/12 05:14:55;;;;;;;;;;;17.00;99.90;;;;;;5060518;28;20003;-74
2022/07/12 05:17:22;;;;;;;;;;;17.10;99.90;;;;;;5064445;28;19932;-73
2022/07/12 05:19:49;;;;;;;;;;;17.20;99.90;;;;;;5061013;28;20019;-73
2022/07/12 05:22:15;;;;;;;;;;;17.30;99.90;;;;;;5065513;28;19967;-73
2022/07/12 05:24:43;;;;;;;;;;;17.40;99.90;;;;;;5064625;28;20308;-74
2022/07/12 05:27:10;;;;;;;;;;;17.40;99.90;;;;;;5065710;28;19963;-73
2022/07/12 05:29:37;;;;;;;;;;;17.60;99.90;;;;;;5065581;28;19932;-73
2022/07/12 05:32:05;;;;;;;;;;;17.80;99.90;;;;;;5061325;28;21023;-73
2022/07/12 05:34:32;;;;;;;;;;;18.00;99.90;;;;;;5061557;28;20018;-73
2022/07/12 05:36:59;;;;;;;;;;;18.20;99.90;;;;;;5064773;28;19948;-73
2022/07/12 05:39:25;;;;;;;;;;;18.30;99.90;;;;;;5068119;28;20014;-73
2022/07/12 05:41:53;;;;;;;;;;;18.50;99.90;;;;;;5064649;28;19968;-73
2022/07/12 05:44:20;;;;;;;;;;;18.60;99.90;;;;;;5063814;28;20471;-73
2022/07/12 05:46:47;;;;;;;;;;;18.60;99.90;;;;;;5061796;28;19967;-73
2022/07/12 05:49:13;;;;;;;;;;;18.70;99.90;;;;;;5064917;28;20024;-74
2022/07/12 05:54:25;;;;;;;;;;;18.60;99.90;;;;;;5061078;28;19932;-73
2022/07/12 05:56:51;;;;;;;;;;;18.50;99.90;;;;;;5061051;28;19946;-74
2022/07/12 05:59:20;;;;;;;;;;;18.60;99.90;;;;;;5060075;28;20076;-73
2022/07/12 06:01:46;;;;;;;;;;;18.50;99.90;;;;;;5060922;28;20350;-74
2022/07/12 06:04:13;;;;;;;;;;;18.90;99.90;;;;;;5062444;28;20010;-73
2022/07/12 06:06:40;;;;;;;;;;;20.10;99.90;;;;;;5061554;28;20379;-74
2022/07/12 06:09:06;;;;;;;;;;;21.60;99.90;;;;;;5062410;28;19924;-73
2022/07/12 06:11:33;;;;;;;;;;;22.80;99.90;;;;;;5064840;28;20069;-71
2022/07/12 06:14:00;;;;;;;;;;;22.20;99.90;;;;;;5063141;28;19944;-73
2022/07/12 06:16:28;;;;;;;;;;;22.60;99.90;;;;;;5059646;28;19987;-73
2022/07/12 06:18:55;;;;;;;;;;;23.00;99.00;;;;;;5065756;28;19932;-73
2022/07/12 06:21:22;;;;;;;;;;;23.40;98.30;;;;;;5065703;28;20122;-73
2022/07/12 06:23:49;;;;;;;;;;;23.60;96.40;;;;;;5064604;28;19978;-73
2022/07/12 06:26:15;;;;;;;;;;;22.60;98.40;;;;;;5066010;28;20003;-74
2022/07/12 06:28:42;;;;;;;;;;;22.60;99.00;;;;;;5069120;28;19928;-74
2022/07/12 06:31:09;;;;;;;;;;;22.90;98.30;;;;;;5070373;28;20016;-74
2022/07/12 06:33:37;;;;;;;;;;;24.00;97.40;;;;;;5070715;28;19928;-74
2022/07/12 06:36:04;;;;;;;;;;;24.80;93.60;;;;;;5066949;28;19971;-74
2022/07/12 06:38:31;;;;;;;;;;;25.50;91.30;;;;;;5069280;28;19999;-73
2022/07/12 06:40:57;;;;;;;;;;;26.30;87.30;;;;;;5065517;28;19932;-74
2022/07/12 06:43:25;;;;;;;;;;;27.10;80.20;;;;;;5068326;28;20011;-74
2022/07/12 06:45:51;;;;;;;;;;;26.80;73.10;;;;;;5063497;28;20404;-74
2022/07/12 06:48:18;;;;;;;;;;;26.00;74.60;;;;;;5059515;28;20019;-74
2022/07/12 06:50:46;;;;;;;;;;;26.90;72.90;;;;;;5056623;28;19924;-73
2022/07/12 06:53:13;;;;;;;;;;;28.30;63.70;;;;;;5063611;28;19968;-73
2022/07/12 06:55:40;;;;;;;;;;;29.20;56.00;;;;;;5060429;28;19975;-74
2022/07/12 06:58:07;;;;;;;;;;;29.20;52.50;;;;;;5064055;28;20032;-72
2022/07/12 07:00:34;;;;;;;;;;;29.20;52.20;;;;;;5069681;28;20017;-74
2022/07/12 07:03:00;;;;;;;;;;;29.40;47.80;;;;;;5065009;28;20007;-73
2022/07/12 07:05:27;;;;;;;;;;;29.70;46.80;;;;;;5066045;28;20398;-73
2022/07/12 07:07:55;;;;;;;;;;;29.90;44.60;;;;;;5064156;28;19975;-73
2022/07/12 07:10:22;;;;;;;;;;;30.10;42.00;;;;;;5064952;28;20019;-74
2022/07/12 07:12:49;;;;;;;;;;;29.90;42.70;;;;;;5065805;28;19924;-73
2022/07/12 07:15:16;;;;;;;;;;;30.50;40.90;;;;;;5061391;28;20012;-74
2022/07/12 07:17:43;;;;;;;;;;;30.50;38.30;;;;;;5065099;28;20051;-73
2022/07/12 07:20:10;;;;;;;;;;;29.80;38.30;;;;;;5069691;28;20023;-73
2022/07/12 07:22:37;;;;;;;;;;;29.30;39.60;;;;;;5065464;28;19963;-73
2022/07/12 07:25:05;;;;;;;;;;;29.10;41.20;;;;;;5068345;28;19928;-74
2022/07/12 07:27:32;;;;;;;;;;;29.70;40.10;;;;;;5062956;28;19924;-73
2022/07/12 07:32:44;;;;;;;;;;;29.70;38.60;;;;;;5062231;28;19931;-74
2022/07/12 07:35:11;;;;;;;;;;;31.50;36.30;;;;;;5067662;28;19973;-73
2022/07/12 07:37:38;;;;;;;;;;;32.30;32.20;;;;;;5070363;28;20034;-73
2022/07/12 07:40:07;;;;;;;;;;;32.10;31.30;;;;;;5059405;28;19972;-74
2022/07/12 07:42:34;;;;;;;;;;;32.40;30.10;;;;;;5062224;28;20019;-73
2022/07/12 07:45:01;;;;;;;;;;;33.00;28.20;;;;;;5041979;28;20026;-73
2022/07/12 07:47:28;;;;;;;;;;;32.50;27.70;;;;;;5057803;28;20288;-73
2022/07/12 07:49:55;;;;;;;;;;;31.90;28.70;;;;;;5064472;28;20032;-73
2022/07/12 07:52:22;;;;;;;;;;;31.80;28.70;;;;;;5065576;28;19956;-73
2022/07/12 07:54:49;;;;;;;;;;;32.00;27.60;;;;;;5065288;28;19936;-73
2022/07/12 07:57:17;;;;;;;;;;;31.70;27.50;;;;;;5063958;28;20354;-73
2022/07/12 07:59:44;;;;;;;;;;;31.50;26.10;;;;;;5065286;28;20020;-74
2022/07/12 08:02:12;;;;;;;;;;;30.90;27.60;;;;;;5067016;28;19979;-73
2022/07/12 08:04:38;;;;;;;;;;;30.90;27.40;;;;;;5060240;28;20031;-74
2022/07/12 08:07:05;;;;;;;;;;;31.60;27.50;;;;;;5065600;28;20452;-75
2022/07/12 08:09:32;;;;;;;;;;;32.20;26.00;;;;;;5066723;28;20029;-74
2022/07/12 08:11:58;;;;;;;;;;;32.80;25.40;;;;;;5068832;28;19971;-74
2022/07/12 08:14:26;;;;;;;;;;;32.80;24.00;;;;;;5067392;28;19966;-75
2022/07/12 08:16:54;;;;;;;;;;;32.90;23.60;;;;;;5060113;28;19940;-73
2022/07/12 08:19:20;;;;;;;;;;;32.30;23.70;;;;;;5058802;28;20306;-73
2022/07/12 08:21:47;;;;;;;;;;;32.30;23.30;;;;;;5063414;28;19955;-74
2022/07/12 08:24:14;;;;;;;;;;;32.10;23.30;;;;;;5063617;28;20011;-73
2022/07/12 08:26:41;;;;;;;;;;;;;;;;;;5065461;28;19928;-74
2022/07/12 08:29:08;;;;;;;;;;;;;;;;;;5065970;28;20362;-74
2022/07/12 08:31:36;;;;;;;;;;;;;;;;;;5064937;28;19990;-73
2022/07/12 08:34:03;;;;;;;;;;;;;;;;;;5064335;28;19998;-73
2022/07/12 08:36:30;;;;;;;;;;;;;;;;;;5068928;28;19928;-73
2022/07/12 08:38:57;;;;;;;;;;;;;;;;;;5065259;28;20206;-73
2022/07/12 08:41:24;;;;;;;;;;;;;;;;;;5058572;28;19924;-73
2022/07/12 08:43:51;;;;;;;;;;;;;;;;;;5062025;28;19948;-73
2022/07/12 08:46:19;;;;;;;;;;;34.10;18.50;;;;;;5059999;28;19943;-73
2022/07/12 08:48:46;;;;;;;;;;;34.60;17.30;;;;;;5056480;28;19954;-67
2022/07/12 08:51:13;;;;;;;;;;;34.30;16.60;;;;;;5061045;28;20022;-68
2022/07/12 08:53:41;;;;;;;;;;;35.00;15.70;;;;;;5055586;28;19935;-68
2022/07/12 08:56:08;;;;;;;;;;;35.30;14.70;;;;;;5054519;28;19925;-68
2022/07/12 08:58:34;;;;;;;;;;;36.00;13.60;;;;;;5058490;28;20007;-69
2022/07/12 09:01:01;;;;;;;;;;;35.30;12.50;;;;;;5063359;28;20378;-70
2022/07/12 09:03:30;;;;;;;;;;;34.30;13.30;;;;;;5055918;28;19946;-68
2022/07/12 09:05:58;;;;;;;;;;;34.70;13.10;;;;;;5060167;28;19933;-69
2022/07/12 09:08:26;;;;;;;;;;;;;;;;;;5054933;28;20012;-69
2022/07/12 09:10:53;;;;;;;;;;;;;;;;;;5059040;28;19986;-69
2022/07/12 09:13:20;;;;;;;;;;;;;;;;;;5064923;28;19931;-69
2022/07/12 09:15:47;;;;;;;;;;;;;;;;;;5062533;28;20023;-69
2022/07/12 09:18:16;;;;;;;;;;;;;;;;;;5063379;28;20023;-68
2022/07/12 09:20:43;;;;;;;;;;;;;;;;;;5059511;28;19924;-69
2022/07/12 09:23:10;;;;;;;;;;;;;;;;;;5056652;28;20453;-70
2022/07/12 09:25:37;;;;;;;;;;;;;;;;;;5057653;28;19925;-69
2022/07/12 09:28:04;;;;;;;;;;;;;;;;;;5055796;28;19957;-69
2022/07/12 09:30:31;;;;;;;;;;;;;;;;;;5058533;28;19936;-76
2022/07/12 09:38:28;;;;;;;;;;;;;;;;;;5059164;28;19931;-75
2022/07/12 09:40:55;;;;;;;;;;;;;;;;;;5064410;28;19924;-75
2022/07/12 09:43:22;;;;;;;;;;;;;;;;;;5060881;28;19924;-74
2022/07/12 09:45:51;;;;;;;;;;;33.30;11.20;;;;;;5054821;28;20023;-75
2022/07/12 09:48:19;;;;;;;;;;;33.20;12.30;;;;;;5057490;28;21226;-74
2022/07/12 09:50:47;;;;;;;;;;;33.00;11.70;;;;;;5058120;28;19940;-74
2022/07/12 09:53:15;;;;;;;;;;;32.90;17.10;;;;;;5058037;28;19928;-75
2022/07/12 09:55:42;;;;;;;;;;;33.00;20.60;;;;;;5058460;28;19925;-73
2022/07/12 09:58:09;;;;;;;;;;;33.00;20.40;;;;;;5058853;28;20353;-74
2022/07/12 10:00:37;;;;;;;;;;;33.10;23.10;;;;;;5057794;28;20019;-73
2022/07/12 10:03:05;;;;;;;;;;;33.40;22.70;;;;;;5059075;28;19924;-74
2022/07/12 10:05:34;;;;;;;;;;;33.30;22.20;;;;;;5063307;28;20406;-75
2022/07/12 10:08:02;;;;;;;;;;;33.30;22.10;;;;;;5065044;28;19925;-74
2022/07/12 10:10:29;;;;;;;;;;;32.90;22.30;;;;;;5063604;28;19963;-74
2022/07/12 10:12:56;;;;;;;;;;;32.20;21.20;;;;;;5062984;28;20027;-74
2022/07/12 10:15:26;;;;;;;;;;;31.70;16.30;;;;;;5061539;28;19959;-74
2022/07/12 10:17:55;;;;;;;;;;;31.30;13.30;;;;;;5060437;28;19935;-74
2022/07/12 10:20:24;;;;;;;;;;;30.70;14.70;;;;;;5063787;28;20035;-74
2022/07/12 10:22:52;;;;;;;;;;;30.30;14.90;;;;;;5057768;28;19925;-74
2022/07/12 10:25:29;;;;;;;;;;;30.10;14.20;;;;;;5061860;28;20025;-74
2022/07/12 10:27:55;;;;;;;;;;;29.80;14.80;;;;;;5063610;28;19925;-73
2022/07/12 10:30:24;;;;;;;;;;;29.70;15.20;;;;;;5063338;28;19930;-74
2022/07/12 10:32:53;;;;;;;;;;;29.30;15.20;;;;;;5063155;28;20367;-73
2022/07/12 10:35:20;;;;;;;;;;;29.10;15.90;;;;;;5062960;28;19944;-73
2022/07/12 10:38:05;;;;;;;;;;;29.50;15.90;;;;;;5067810;28;20367;-74
2022/07/12 10:40:35;;;;;;;;;;;29.10;15.70;;;;;;5067165;28;19975;-74
2022/07/12 10:44:04;;;;;;;;;;;29.40;16.00;;;;;;5069844;28;20415;-73
2022/07/12 10:46:18;;;;;;;;;;;29.60;15.40;;;;;;5066168;28;19940;-74
2022/07/12 10:48:45;;;;;;;;;;;29.60;15.80;;;;;;5066505;28;19940;-74
2022/07/12 10:51:16;;;;;;;;;;;29.40;16.10;;;;;;5067296;28;20083;-75
2022/07/12 10:53:45;;;;;;;;;;;29.50;14.90;;;;;;5066460;28;19931;-74
2022/07/12 10:56:25;;;;;;;;;;;29.60;15.40;;;;;;5065859;28;20454;-74
2022/07/12 10:58:53;;;;;;;;;;;29.60;14.90;;;;;;5064992;28;20031;-74
2022/07/12 11:01:20;;;;;;;;;;;29.70;14.80;;;;;;5064773;28;19928;-73
2022/07/12 11:03:49;;;;;;;;;;;29.50;15.40;;;;;;5064978;28;20345;-73
2022/07/12 11:06:16;;;;;;;;;;;29.40;15.20;;;;;;5065965;28;20371;-72
2022/07/12 11:08:50;;;;;;;;;;;29.40;15.90;;;;;;5062614;28;20340;-73
2022/07/12 11:11:16;;;;;;;;;;;29.60;15.40;;;;;;5065288;28;20271;-73
2022/07/12 11:13:44;;;;;;;;;;;29.50;14.80;;;;;;5063466;28;19934;-73
2022/07/12 11:16:11;;;;;;;;;;;29.60;14.80;;;;;;5063281;28;19967;-73
2022/07/12 11:18:38;;;;;;;;;;;29.90;14.80;;;;;;5062550;28;19933;-72
2022/07/12 11:21:05;;;;;;;;;;;29.80;14.20;;;;;;5064498;28;19932;-73
2022/07/12 11:23:32;;;;;;;;;;;29.70;14.40;;;;;;5061437;28;19924;-75
2022/07/12 11:25:59;;;;;;;;;;;29.60;14.50;;;;;;5062839;28;19970;-76
2022/07/12 11:28:27;;;;;;;;;;;29.60;14.70;;;;;;5055531;28;20007;-72
2022/07/12 11:31:02;;;;;;;;;;;29.60;14.70;;;;;;5056066;28;19935;-73
2022/07/12 11:33:32;;;;;;;;;;;29.60;14.90;;;;;;5058492;28;19928;-73
2022/07/12 11:35:59;;;;;;;;;;;29.70;15.10;;;;;;5060824;28;20394;-73
2022/07/12 11:38:26;;;;;;;;;;;29.80;14.90;;;;;;5060840;28;19962;-74
2022/07/12 11:40:55;;;;;;;;;;;29.80;14.90;;;;;;5061740;28;20044;-74
2022/07/12 11:43:22;;;;;;;;;;;29.40;14.50;;;;;;5060269;28;20422;-74
2022/07/12 11:45:49;;;;;;;;;;;29.40;14.30;;;;;;5061828;28;19985;-74
2022/07/12 11:48:17;;;;;;;;;;;29.60;14.10;;;;;;5063743;28;20415;-73
2022/07/12 11:50:44;;;;;;;;;;;29.80;14.40;;;;;;5062793;28;19925;-74
2022/07/12 11:53:15;;;;;;;;;;;29.80;14.80;;;;;;5056146;28;19935;-73
2022/07/12 11:55:42;;;;;;;;;;;29.60;14.10;;;;;;5058683;28;19925;-73
2022/07/12 11:58:08;;;;;;;;;;;29.30;15.10;;;;;;5052393;28;19933;-72
2022/07/12 12:00:35;;;;;;;;;;;29.20;15.10;;;;;;5058908;28;20032;-73
2022/07/12 12:03:02;;;;;;;;;;;29.20;14.90;;;;;;5058932;28;20410;-73
2022/07/12 12:05:30;;;;;;;;;;;29.50;14.90;;;;;;5059174;28;19976;-73
2022/07/12 12:07:57;;;;;;;;;;;29.60;15.20;;;;;;5061724;28;20019;-74
2022/07/12 12:10:24;;;;;;;;;;;29.70;15.50;;;;;;5060025;28;20424;-74
2022/07/12 12:12:52;;;;;;;;;;;29.80;15.20;;;;;;5059691;28;20023;-73
2022/07/12 12:15:19;;;;;;;;;;;30.00;14.80;;;;;;5057962;28;19978;-73
2022/07/12 12:17:46;;;;;;;;;;;30.10;15.00;;;;;;5060349;28;20019;-73
2022/07/12 12:20:14;;;;;;;;;;;29.80;15.90;;;;;;5063336;28;19936;-73
2022/07/12 12:22:43;;;;;;;;;;;30.10;15.80;;;;;;5063444;28;19932;-73
2022/07/12 12:25:13;;;;;;;;;;;29.80;15.80;;;;;;5061510;28;19967;-73
2022/07/12 12:27:47;;;;;;;;;;;29.70;16.70;;;;;;5061132;28;20352;-74
2022/07/12 12:30:14;;;;;;;;;;;30.00;16.70;;;;;;5066733;28;19924;-73
2022/07/12 12:32:50;;;;;;;;;;;30.30;15.70;;;;;;5061181;28;20385;-73
2022/07/12 12:35:17;;;;;;;;;;;30.40;15.10;;;;;;5062410;28;19970;-73
2022/07/12 12:37:55;;;;;;;;;;;30.30;15.00;;;;;;5065877;28;19971;-73
2022/07/12 12:40:23;;;;;;;;;;;30.30;15.20;;;;;;5060796;28;20022;-73
2022/07/12 12:42:50;;;;;;;;;;;30.30;16.10;;;;;;5059003;28;20437;-73
2022/07/12 12:45:24;;;;;;;;;;;30.70;16.00;;;;;;5065113;28;20015;-73
2022/07/12 12:47:57;;;;;;;;;;;30.60;15.70;;;;;;5063184;28;20447;-73
2022/07/12 12:50:53;;;;;;;;;;;30.50;15.40;;;;;;5061854;28;20027;-75
2022/07/12 12:53:22;;;;;;;;;;;30.40;15.50;;;;;;4962722;28;19978;-73
2022/07/12 12:55:49;;;;;;;;;;;30.50;16.30;;;;;;5039394;28;19947;-73
2022/07/12 12:58:16;;;;;;;;;;;30.90;14.70;;;;;;5064568;28;20022;-72
2022/07/12 13:00:44;;;;;;;;;;;31.20;14.50;;;;;;5066650;28;19938;-73
2022/07/12 13:03:12;;;;;;;;;;;31.20;13.70;;;;;;5061471;28;19939;-69
2022/07/12 13:05:39;;;;;;;;;;;31.20;13.50;;;;;;5060660;28;20015;-73
2022/07/12 13:08:06;;;;;;;;;;;31.30;12.60;;;;;;5067002;28;20183;-73
2022/07/12 13:10:35;;;;;;;;;;;31.20;12.10;;;;;;5071261;28;19924;-74
2022/07/12 13:13:02;;;;;;;;;;;30.60;12.90;;;;;;5065785;28;19974;-74
2022/07/12 13:15:29;;;;;;;;;;;30.50;13.70;;;;;;5074644;28;19930;-73
2022/07/12 13:17:55;;;;;;;;;;;30.40;14.10;;;;;;5081234;28;19929;-73
2022/07/12 13:20:23;;;;;;;;;;;30.10;14.40;;;;;;5067880;28;19932;-73
2022/07/12 13:22:49;;;;;;;;;;;30.60;14.80;;;;;;5067131;28;19982;-73
2022/07/12 13:25:16;;;;;;;;;;;30.80;13.90;;;;;;5065968;28;20127;-73
2022/07/12 13:27:45;;;;;;;;;;;30.80;13.90;;;;;;5067196;28;19924;-73
2022/07/12 13:30:12;;;;;;;;;;;30.80;13.70;;;;;;5068523;28;20342;-76
2022/07/12 13:32:39;;;;;;;;;;;31.10;13.40;;;;;;5067455;28;19964;-73
2022/07/12 13:35:07;;;;;;;;;;;31.00;13.60;;;;;;5069698;28;19924;-73
2022/07/12 13:37:34;;;;;;;;;;;31.30;13.40;;;;;;5067712;28;19936;-73
2022/07/12 13:40:14;;;;;;;;;;;31.30;12.60;;;;;;5066234;28;20806;-74
2022/07/12 13:42:42;;;;;;;;;;;31.20;12.80;;;;;;5066263;28;20455;-73
2022/07/12 13:45:11;;;;;;;;;;;31.30;12.20;;;;;;5059999;28;20011;-73
2022/07/12 13:47:38;;;;;;;;;;;31.20;10.70;;;;;;5059851;28;20053;-73
2022/07/12 13:50:05;;;;;;;;;;;30.90;10.70;;;;;;5058093;28;20024;-72
2022/07/12 13:52:32;;;;;;;;;;;30.90;11.00;;;;;;5067050;28;20011;-72
2022/07/12 13:54:59;;;;;;;;;;;31.20;11.00;;;;;;5066169;28;20019;-73
2022/07/12 13:57:26;;;;;;;;;;;31.50;11.20;;;;;;5064774;28;20007;-79
2022/07/12 13:59:53;;;;;;;;;;;31.70;9.50;;;;;;5067451;28;19924;-75
2022/07/12 14:02:21;;;;;;;;;;;31.70;9.60;;;;;;5063777;28;19924;-75
2022/07/12 14:04:48;;;;;;;;;;;31.20;10.50;;;;;;5062618;28;19924;-74
2022/07/12 14:07:14;;;;;;;;;;;31.20;10.30;;;;;;5060326;28;20019;-72
2022/07/12 14:09:41;;;;;;;;;;;31.40;10.10;;;;;;5060752;28;20012;-75
2022/07/12 14:12:09;;;;;;;;;;;31.50;10.30;;;;;;5061799;28;20268;-73
2022/07/12 14:17:22;;;;;;;;;;;31.90;9.10;;;;;;5062348;28;19933;-73
2022/07/12 14:19:48;;;;;;;;;;;32.00;9.30;;;;;;5060927;28;19967;-74
2022/07/12 14:22:15;;;;;;;;;;;32.20;9.10;;;;;;5060894;28;19924;-72
2022/07/12 14:24:42;;;;;;;;;;;32.30;8.90;;;;;;5058668;28;20760;-75
2022/07/12 14:27:09;;;;;;;;;;;32.20;8.10;;;;;;5062066;28;20026;-74
2022/07/12 14:29:36;;;;;;;;;;;32.10;8.20;;;;;;5062227;28;20384;-73
2022/07/12 14:32:02;;;;;;;;;;;32.20;7.70;;;;;;5058615;28;20008;-74
2022/07/12 14:34:30;;;;;;;;;;;32.00;8.20;;;;;;5058606;28;20348;-74
2022/07/12 14:36:57;;;;;;;;;;;31.80;7.40;;;;;;5054981;28;19956;-73
2022/07/12 14:39:24;;;;;;;;;;;31.80;8.00;;;;;;5066857;28;19959;-73
2022/07/12 14:41:50;;;;;;;;;;;31.80;6.40;;;;;;5061013;28;20024;-73
2022/07/12 14:44:18;;;;;;;;;;;32.00;6.20;;;;;;5068097;28;20338;-73